Time;durP1;ratioP1;P1;durP2;ratioP2;P2;SDS_P1;SDS_P2;PMS_P1;PMS_P2;Temp;Humidity;BMP_temperature;BMP_pressure;BME280_temperature;BME280_humidity;BME280_pressure;Samples;Min_cycle;Max_cycle;Signal;HPM_P1;HPM_P2
2021/05/15 00:02:13;;;;;;;0.63;0.60;;;14.60;54.10;;;;;;6323076;28;20326;-82
2021/05/15 00:05:14;;;;;;;3.17;0.60;;;14.50;54.20;;;;;;6313639;28;20032;-84
2021/05/15 00:08:15;;;;;;;1.73;0.88;;;14.50;54.40;;;;;;6313916;28;20046;-82
2021/05/15 00:11:20;;;;;;;2.25;0.85;;;14.40;54.50;;;;;;6320072;28;20032;-82
2021/05/15 00:14:21;;;;;;;2.15;0.80;;;14.40;54.50;;;;;;6326155;28;20334;-82
2021/05/15 00:17:22;;;;;;;4.05;0.85;;;14.40;54.50;;;;;;6314433;28;20028;-82
2021/05/15 00:20:24;;;;;;;3.15;0.77;;;14.40;54.40;;;;;;6331987;28;20042;-81
2021/05/15 00:23:25;;;;;;;1.40;0.85;;;14.40;54.40;;;;;;6330548;28;20084;-82
2021/05/15 00:26:27;;;;;;;8.77;1.17;;;14.50;54.30;;;;;;6332087;28;20126;-83
2021/05/15 00:29:28;;;;;;;0.98;0.80;;;14.50;54.20;;;;;;6317306;28;20109;-82
2021/05/15 00:32:29;;;;;;;1.33;0.70;;;14.50;54.10;;;;;;6357410;27;20349;-82
2021/05/15 00:35:30;;;;;;;1.08;0.77;;;14.50;54.10;;;;;;6318326;28;20112;-82
2021/05/15 00:38:31;;;;;;;0.65;0.63;;;14.50;54.10;;;;;;6316803;28;20114;-83
2021/05/15 00:41:32;;;;;;;1.17;0.80;;;14.50;54.60;;;;;;6318086;28;20035;-82
2021/05/15 00:44:44;;;;;;;1.85;0.95;;;14.60;54.10;;;;;;6334304;28;20043;-83
2021/05/15 00:47:45;;;;;;;0.90;0.80;;;14.60;54.20;;;;;;6350915;28;20176;-83
2021/05/15 00:50:46;;;;;;;3.35;1.27;;;14.60;54.30;;;;;;6334930;28;20054;-83
2021/05/15 00:53:48;;;;;;;2.67;0.90;;;14.50;54.30;;;;;;6310046;28;20456;-81
2021/05/15 00:56:49;;;;;;;2.40;1.15;;;14.50;54.60;;;;;;6348830;28;20540;-82
2021/05/15 00:59:50;;;;;;;2.65;0.90;;;14.50;54.70;;;;;;6317051;28;20493;-82
2021/05/15 01:02:51;;;;;;;1.65;1.00;;;14.40;54.80;;;;;;6332367;28;20068;-82
2021/05/15 01:05:52;;;;;;;4.35;1.17;;;14.40;55.00;;;;;;6306756;28;20031;-82
2021/05/15 01:08:54;;;;;;;2.95;1.13;;;14.30;55.20;;;;;;6331674;28;20085;-83
2021/05/15 01:11:55;;;;;;;1.63;0.98;;;14.20;55.30;;;;;;6351173;28;20031;-83
2021/05/15 01:14:57;;;;;;;1.13;0.65;;;14.20;55.40;;;;;;6316296;28;20089;-82
2021/05/15 01:17:58;;;;;;;2.75;1.30;;;14.10;55.60;;;;;;6316260;28;20042;-82
2021/05/15 01:21:01;;;;;;;3.47;1.35;;;14.10;55.70;;;;;;6337418;27;20405;-82
2021/05/15 01:24:03;;;;;;;2.72;0.90;;;14.00;55.80;;;;;;6335495;28;20127;-83
2021/05/15 01:27:08;;;;;;;0.88;0.73;;;14.00;55.90;;;;;;6333164;28;20050;-82
2021/05/15 01:30:11;;;;;;;1.05;0.85;;;13.90;55.80;;;;;;6316179;28;20035;-81
2021/05/15 01:33:12;;;;;;;1.85;1.17;;;13.90;56.40;;;;;;6332828;28;20031;-82
2021/05/15 01:36:14;;;;;;;4.47;1.10;;;13.90;55.90;;;;;;6332898;28;20471;-84
2021/05/15 01:39:15;;;;;;;2.58;1.20;;;13.90;55.80;;;;;;6332592;28;20448;-83
2021/05/15 01:42:18;;;;;;;5.60;1.27;;;13.90;55.80;;;;;;6333667;28;20074;-82
2021/05/15 01:45:20;;;;;;;1.45;1.13;;;13.90;55.90;;;;;;6324274;28;20039;-83
2021/05/15 01:48:22;;;;;;;2.42;1.30;;;13.80;56.00;;;;;;6316595;28;20057;-81
2021/05/15 01:51:23;;;;;;;2.40;1.13;;;13.80;56.10;;;;;;6310375;28;20114;-84
2021/05/15 01:54:24;;;;;;;1.58;0.90;;;13.70;56.30;;;;;;6331026;28;20035;-83
2021/05/15 01:57:27;;;;;;;1.52;0.90;;;13.70;57.10;;;;;;6315891;28;20453;-82
2021/05/15 02:00:30;;;;;;;0.98;0.55;;;13.70;56.70;;;;;;6335472;28;20027;-83
2021/05/15 02:03:32;;;;;;;1.70;0.82;;;13.70;56.80;;;;;;6332460;28;20123;-82
2021/05/15 02:06:33;;;;;;;2.67;0.95;;;13.70;56.90;;;;;;6330782;28;20035;-81
2021/05/15 02:09:34;;;;;;;4.03;1.38;;;13.70;56.90;;;;;;6314476;28;20389;-83
2021/05/15 02:12:35;;;;;;;9.20;0.95;;;13.70;56.80;;;;;;6299228;28;20457;-81
2021/05/15 02:15:37;;;;;;;2.25;0.93;;;13.70;56.70;;;;;;6315042;28;20105;-82
2021/05/15 02:18:39;;;;;;;1.80;0.90;;;13.60;56.70;;;;;;6349660;28;20463;-82
2021/05/15 02:21:40;;;;;;;1.98;0.93;;;13.60;56.80;;;;;;6305317;28;20059;-82
2021/05/15 02:24:42;;;;;;;1.40;0.77;;;13.60;56.90;;;;;;6323593;28;20032;-82
2021/05/15 02:27:43;;;;;;;2.35;1.00;;;13.60;56.90;;;;;;6323819;28;20497;-82
2021/05/15 02:30:46;;;;;;;1.25;0.80;;;13.60;56.90;;;;;;6323670;28;20039;-82
2021/05/15 02:33:47;;;;;;;1.92;0.95;;;13.70;57.00;;;;;;6323398;28;20039;-81
2021/05/15 02:36:48;;;;;;;2.00;1.52;;;13.70;56.90;;;;;;6316768;28;20445;-82
2021/05/15 02:39:49;;;;;;;2.90;1.70;;;13.70;56.90;;;;;;6322343;28;20051;-83
2021/05/15 02:42:51;;;;;;;1.50;1.10;;;13.70;56.80;;;;;;6323580;28;20341;-83
2021/05/15 02:45:52;;;;;;;1.90;1.40;;;13.60;56.90;;;;;;6322030;28;20036;-82
2021/05/15 02:48:53;;;;;;;5.57;1.25;;;13.60;57.00;;;;;;6297031;28;20431;-83
2021/05/15 02:51:54;;;;;;;4.97;2.80;;;13.60;57.10;;;;;;6305702;28;20068;-82
2021/05/15 02:54:55;;;;;;;1.83;1.63;;;13.50;57.20;;;;;;6306015;28;20064;-82
2021/05/15 02:57:56;;;;;;;1.20;1.00;;;13.50;57.30;;;;;;6306783;28;20028;-81
2021/05/15 03:00:57;;;;;;;3.80;1.58;;;13.50;57.20;;;;;;6305264;28;20101;-81
2021/05/15 03:03:58;;;;;;;2.67;1.50;;;13.50;57.20;;;;;;6305757;28;20028;-83
2021/05/15 03:07:00;;;;;;;2.03;1.10;;;13.60;57.20;;;;;;6321269;28;20062;-82
2021/05/15 03:10:01;;;;;;;4.18;1.05;;;13.60;57.10;;;;;;6323391;28;20032;-82
2021/05/15 03:13:02;;;;;;;1.95;0.95;;;13.60;57.00;;;;;;6323350;28;20342;-82
2021/05/15 03:16:04;;;;;;;1.50;0.90;;;13.70;56.80;;;;;;6315981;28;20043;-82
2021/05/15 03:19:05;;;;;;;2.47;0.90;;;13.70;56.40;;;;;;6331470;27;20352;-82
2021/05/15 03:22:07;;;;;;;0.82;0.77;;;13.70;56.00;;;;;;6302439;28;20036;-82
2021/05/15 03:25:09;;;;;;;3.50;0.70;;;13.60;55.80;;;;;;6297728;28;20047;-81
2021/05/15 03:28:10;;;;;;;1.20;0.52;;;13.50;55.70;;;;;;6281111;28;20064;-82
2021/05/15 03:31:11;;;;;;;1.10;0.55;;;13.40;55.80;;;;;;6297074;28;20028;-82
2021/05/15 03:34:12;;;;;;;1.23;0.70;;;13.40;55.80;;;;;;6297349;28;20033;-82
2021/05/15 03:37:13;;;;;;;1.17;0.90;;;13.50;55.90;;;;;;6294495;28;20370;-82
2021/05/15 03:40:14;;;;;;;1.52;0.82;;;13.40;55.90;;;;;;6311554;28;20309;-83
2021/05/15 03:43:15;;;;;;;2.28;1.05;;;13.40;55.90;;;;;;6330425;28;20051;-82
2021/05/15 03:46:16;;;;;;;1.27;0.80;;;13.50;55.90;;;;;;6293311;28;20032;-82
2021/05/15 03:49:17;;;;;;;7.53;1.50;;;13.50;56.00;;;;;;6308035;28;20098;-82
2021/05/15 03:52:18;;;;;;;2.40;1.25;;;13.50;56.20;;;;;;6279840;28;20124;-82
2021/05/15 03:55:20;;;;;;;4.53;1.38;;;13.50;56.40;;;;;;6278618;28;20041;-82
2021/05/15 03:58:21;;;;;;;8.20;0.93;;;13.50;56.50;;;;;;6280609;28;20345;-81
2021/05/15 04:01:22;;;;;;;1.63;1.20;;;13.50;56.60;;;;;;6297815;28;20071;-82
2021/05/15 04:04:23;;;;;;;2.80;1.15;;;13.60;56.70;;;;;;6299458;28;20473;-81
2021/05/15 04:07:24;;;;;;;2.28;1.35;;;13.60;56.70;;;;;;6284483;28;20064;-82
2021/05/15 04:10:25;;;;;;;2.20;1.15;;;13.60;56.90;;;;;;6300605;28;20135;-83
2021/05/15 04:16:49;;;;;;;3.22;1.23;;;13.60;57.00;;;;;;6300580;28;20051;-83
2021/05/15 04:19:50;;;;;;;1.52;1.05;;;13.60;57.00;;;;;;6289206;28;20039;-82
2021/05/15 04:22:51;;;;;;;1.85;0.90;;;13.60;57.00;;;;;;6303488;28;20046;-82
2021/05/15 04:25:54;;;;;;;1.85;1.08;;;13.60;56.90;;;;;;6325137;28;20024;-82
2021/05/15 04:28:55;;;;;;;7.72;1.25;;;13.70;56.90;;;;;;6307438;28;20051;-84
2021/05/15 04:31:57;;;;;;;3.45;0.80;;;13.70;56.90;;;;;;6300132;28;20044;-81
2021/05/15 04:34:58;;;;;;;4.50;1.20;;;13.80;56.90;;;;;;6324660;28;20040;-81
2021/05/15 04:38:01;;;;;;;4.90;1.42;;;13.80;56.80;;;;;;6325049;28;20032;-81
2021/05/15 04:41:02;;;;;;;0.95;0.90;;;13.80;56.80;;;;;;6323940;28;20056;-83
2021/05/15 04:44:03;;;;;;;1.27;0.80;;;13.80;56.70;;;;;;6326008;28;20040;-82
2021/05/15 04:47:04;;;;;;;4.53;1.20;;;13.80;56.70;;;;;;6325948;28;20115;-82
2021/05/15 04:50:08;;;;;;;2.10;1.10;;;13.80;56.60;;;;;;6296956;28;20062;-83
2021/05/15 04:53:09;;;;;;;1.60;0.82;;;13.90;56.60;;;;;;6296982;28;20035;-81
2021/05/15 04:56:10;;;;;;;1.40;1.00;;;13.90;56.60;;;;;;6321830;28;20062;-81
2021/05/15 04:59:11;;;;;;;2.40;1.27;;;13.90;56.50;;;;;;6307530;28;20047;-84
2021/05/15 05:02:12;;;;;;;1.33;1.05;;;14.00;56.40;;;;;;6323424;28;20043;-83
2021/05/15 05:05:13;;;;;;;7.57;1.35;;;14.00;56.40;;;;;;6298589;28;20036;-83
2021/05/15 05:08:14;;;;;;;4.82;1.05;;;14.00;56.20;;;;;;6322408;28;20105;-84
2021/05/15 05:11:15;;;;;;;2.80;1.17;;;14.00;56.10;;;;;;6322377;28;20039;-83
2021/05/15 05:14:16;;;;;;;1.55;0.82;;;14.00;56.60;;;;;;6312664;27;20074;-83
2021/05/15 05:17:18;;;;;;;2.03;0.95;;;14.10;55.90;;;;;;6324526;28;20051;-82
2021/05/15 05:20:19;;;;;;;2.90;0.90;;;14.20;55.80;;;;;;6305784;27;20032;-82
2021/05/15 05:23:21;;;;;;;1.92;0.90;;;14.20;55.40;;;;;;6323737;28;20032;-82
2021/05/15 05:26:22;;;;;;;4.20;1.00;;;14.20;55.20;;;;;;6312477;28;20032;-82
2021/05/15 05:29:23;;;;;;;2.17;0.93;;;14.30;55.10;;;;;;6334526;28;20083;-82
2021/05/15 05:32:24;;;;;;;1.88;1.02;;;14.30;54.90;;;;;;6325176;28;20047;-82
2021/05/15 05:35:26;;;;;;;1.15;0.80;;;14.40;54.80;;;;;;6313918;28;20032;-82
2021/05/15 05:38:27;;;;;;;4.18;1.17;;;14.50;54.60;;;;;;6313933;27;20035;-83
2021/05/15 05:41:28;;;;;;;1.63;0.70;;;14.50;54.40;;;;;;6331316;28;20055;-83
2021/05/15 05:44:29;;;;;;;2.13;0.82;;;14.60;54.10;;;;;;6329663;28;20345;-82
2021/05/15 05:47:30;;;;;;;1.73;1.10;;;14.70;53.90;;;;;;6330429;28;20417;-82
2021/05/15 05:50:31;;;;;;;5.80;1.58;;;14.70;53.70;;;;;;6332012;28;20101;-82
2021/05/15 05:53:32;;;;;;;1.65;0.80;;;14.70;53.40;;;;;;6307713;28;20384;-82
2021/05/15 05:56:34;;;;;;;4.57;0.80;;;14.80;53.10;;;;;;6303428;28;20361;-81
2021/05/15 05:59:35;;;;;;;2.30;0.95;;;14.90;52.80;;;;;;6323592;28;20046;-82
2021/05/15 06:02:38;;;;;;;1.38;0.50;;;15.00;52.50;;;;;;6288264;28;20044;-82
2021/05/15 06:05:39;;;;;;;1.67;0.70;;;15.00;52.20;;;;;;6301878;28;20027;-84
2021/05/15 06:08:40;;;;;;;2.13;0.70;;;15.10;51.90;;;;;;6313692;28;20100;-83
2021/05/15 06:11:41;;;;;;;2.17;0.73;;;15.10;51.60;;;;;;6329363;28;20402;-82
2021/05/15 06:14:42;;;;;;;2.55;0.90;;;15.20;51.40;;;;;;6295649;28;20048;-84
2021/05/15 06:17:43;;;;;;;1.23;0.65;;;15.20;51.20;;;;;;6314023;28;20036;-82
2021/05/15 06:20:45;;;;;;;4.28;0.90;;;15.20;51.20;;;;;;6309411;28;20047;-82
2021/05/15 06:23:46;;;;;;;1.30;0.70;;;15.20;50.90;;;;;;6303114;28;20044;-84
2021/05/15 06:26:47;;;;;;;0.77;0.60;;;15.30;50.80;;;;;;6345336;27;20054;-82
2021/05/15 06:29:48;;;;;;;1.85;0.57;;;15.30;50.60;;;;;;6312035;28;20039;-83
2021/05/15 06:32:49;;;;;;;0.50;0.50;;;15.40;50.40;;;;;;6329479;28;20100;-83
2021/05/15 06:35:50;;;;;;;2.05;0.82;;;15.40;50.10;;;;;;6322396;28;20036;-83
2021/05/15 06:38:51;;;;;;;1.67;0.50;;;15.40;49.90;;;;;;6348101;28;20046;-83
2021/05/15 06:41:52;;;;;;;0.85;0.57;;;15.50;49.70;;;;;;6313506;28;20039;-83
2021/05/15 06:44:55;;;;;;;0.88;0.60;;;15.50;49.40;;;;;;6336436;28;20028;-83
2021/05/15 06:47:57;;;;;;;1.77;0.70;;;15.60;49.30;;;;;;6329254;28;20036;-82
2021/05/15 06:50:59;;;;;;;1.13;0.70;;;15.60;49.20;;;;;;6296389;28;20031;-82
2021/05/15 06:54:01;;;;;;;0.75;0.55;;;15.60;49.20;;;;;;6330007;28;20036;-82
2021/05/15 06:57:03;;;;;;;1.45;0.90;;;15.60;49.10;;;;;;6346670;28;20046;-83
2021/05/15 07:00:06;;;;;;;1.73;0.85;;;15.70;49.00;;;;;;6320076;28;20023;-82
2021/05/15 07:03:08;;;;;;;0.80;0.57;;;15.80;48.90;;;;;;6312172;28;20055;-82
2021/05/15 07:06:09;;;;;;;0.60;0.60;;;15.80;48.60;;;;;;6302567;28;20533;-82
2021/05/15 07:09:10;;;;;;;1.15;0.70;;;15.90;48.50;;;;;;6325169;28;20031;-82
2021/05/15 07:12:32;;;;;;;2.80;0.60;;;15.90;48.50;;;;;;6328064;28;20076;-84
2021/05/15 07:15:33;;;;;;;0.68;0.57;;;16.10;48.30;;;;;;6329259;28;20043;-83
2021/05/15 07:18:35;;;;;;;0.75;0.50;;;16.10;48.00;;;;;;6303389;28;20036;-82
2021/05/15 07:21:37;;;;;;;1.17;0.90;;;16.20;47.80;;;;;;6311397;28;20468;-82
2021/05/15 07:24:38;;;;;;;3.38;0.55;;;16.30;47.50;;;;;;6332244;28;20028;-83
2021/05/15 07:27:40;;;;;;;1.23;0.70;;;16.40;47.40;;;;;;6322232;28;20028;-83
2021/05/15 07:30:42;;;;;;;0.32;0.30;;;16.40;47.10;;;;;;6296270;28;20036;-83
2021/05/15 07:33:43;;;;;;;0.77;0.68;;;16.50;47.00;;;;;;6311222;28;20128;-82
2021/05/15 07:36:44;;;;;;;1.08;0.60;;;16.50;46.90;;;;;;6319527;28;20035;-83
2021/05/15 07:39:45;;;;;;;3.40;0.68;;;16.60;46.80;;;;;;6310120;28;20078;-83
2021/05/15 07:42:47;;;;;;;1.83;0.85;;;16.70;46.50;;;;;;6300496;28;20036;-83
2021/05/15 07:45:48;;;;;;;0.50;0.50;;;16.90;46.20;;;;;;6308945;28;20100;-82
2021/05/15 07:48:49;;;;;;;1.38;0.60;;;17.00;45.80;;;;;;6325793;28;20468;-81
2021/05/15 07:51:52;;;;;;;0.88;0.75;;;17.10;45.40;;;;;;6323671;28;20077;-82
2021/05/15 07:54:54;;;;;;;1.73;0.82;;;17.20;45.20;;;;;;6308362;28;20457;-84
2021/05/15 07:57:55;;;;;;;1.38;0.50;;;17.20;45.00;;;;;;6308344;28;20418;-82
2021/05/15 08:00:56;;;;;;;1.15;0.50;;;17.30;44.90;;;;;;6324911;28;20123;-82
2021/05/15 08:03:57;;;;;;;1.40;0.70;;;17.40;44.70;;;;;;6319726;28;20413;-82
2021/05/15 08:06:58;;;;;;;1.30;0.65;;;17.50;44.40;;;;;;6306907;28;20428;-82
2021/05/15 08:10:00;;;;;;;0.85;0.68;;;17.60;44.10;;;;;;6324834;28;20039;-83
2021/05/15 08:13:01;;;;;;;3.67;0.60;;;17.70;43.90;;;;;;6324777;28;20436;-82
2021/05/15 08:16:02;;;;;;;2.17;0.40;;;17.80;43.70;;;;;;6308320;28;20057;-82
2021/05/15 08:19:04;;;;;;;0.95;0.70;;;17.90;43.40;;;;;;6300160;28;20036;-82
2021/05/15 08:22:05;;;;;;;0.73;0.45;;;18.00;43.30;;;;;;6311455;27;20118;-83
2021/05/15 08:25:08;;;;;;;1.30;0.57;;;18.10;43.10;;;;;;6299182;28;20127;-81
2021/05/15 08:28:14;;;;;;;1.65;0.60;;;18.10;43.40;;;;;;6264116;28;20047;-82
2021/05/15 08:31:15;;;;;;;0.80;0.68;;;18.20;42.40;;;;;;6275923;28;20029;-82
2021/05/15 08:34:16;;;;;;;0.90;0.70;;;18.20;42.50;;;;;;6277151;28;20112;-82
2021/05/15 08:37:18;;;;;;;1.25;0.50;;;18.20;42.50;;;;;;6292373;28;20063;-82
2021/05/15 08:40:22;;;;;;;1.48;0.73;;;18.30;42.40;;;;;;6298917;28;20048;-82
2021/05/15 08:43:26;;;;;;;1.17;0.65;;;18.30;42.40;;;;;;6316474;28;20044;-81
2021/05/15 08:46:29;;;;;;;1.85;0.70;;;18.30;42.50;;;;;;6299335;28;20464;-83
2021/05/15 08:49:36;;;;;;;1.88;0.80;;;18.30;42.90;;;;;;6314301;28;20060;-82
2021/05/15 08:52:42;;;;;;;2.03;1.05;;;18.40;43.50;;;;;;6295471;28;20032;-83
2021/05/15 08:55:44;;;;;;;4.93;2.25;;;18.40;43.80;;;;;;6296652;28;20040;-83
2021/05/15 08:58:45;;;;;;;3.50;0.82;;;18.40;43.70;;;;;;6280211;28;20039;-83
2021/05/15 09:01:47;;;;;;;0.63;0.52;;;18.40;43.80;;;;;;6290325;28;20036;-83
2021/05/15 09:04:47;;;;;;;1.02;0.50;;;18.40;44.00;;;;;;6272187;28;20067;-82
2021/05/15 09:07:54;;;;;;;0.85;0.68;;;18.40;44.10;;;;;;6281663;28;20028;-83
2021/05/15 09:10:55;;;;;;;3.85;0.85;;;18.50;44.40;;;;;;6298206;28;20127;-83
2021/05/15 09:13:56;;;;;;;2.28;0.70;;;18.50;44.50;;;;;;6316390;28;20071;-81
2021/05/15 09:16:59;;;;;;;1.23;0.70;;;18.60;44.80;;;;;;6315375;28;20033;-82
2021/05/15 09:20:00;;;;;;;0.60;0.50;;;18.70;44.80;;;;;;6295050;28;20029;-82
2021/05/15 09:23:22;;;;;;;2.90;1.15;;;18.80;44.70;;;;;;6322336;28;20102;-82
2021/05/15 09:26:25;;;;;;;2.67;0.98;;;18.90;44.60;;;;;;6295763;28;20044;-82
2021/05/15 09:29:26;;;;;;;6.45;1.30;;;18.90;44.20;;;;;;6312932;28;20048;-83
2021/05/15 09:32:31;;;;;;;1.98;1.00;;;19.00;44.40;;;;;;6314554;28;20142;-84
2021/05/15 09:35:32;;;;;;;2.15;1.10;;;19.00;44.80;;;;;;6317227;28;20304;-82
2021/05/15 09:38:33;;;;;;;1.48;0.95;;;19.00;45.00;;;;;;6276526;28;20092;-82
2021/05/15 09:41:45;;;;;;;2.88;1.50;;;19.00;45.40;;;;;;6311118;28;20040;-83
2021/05/15 09:44:47;;;;;;;1.92;1.05;;;18.90;45.70;;;;;;6311507;28;20028;-82
2021/05/15 09:48:01;;;;;;;1.35;1.20;;;18.90;46.10;;;;;;6312372;28;20036;-82
2021/05/15 09:51:17;;;;;;;1.90;1.10;;;18.90;46.30;;;;;;6313833;28;20299;-83
2021/05/15 09:54:23;;;;;;;1.73;1.20;;;18.90;46.10;;;;;;6300419;28;20033;-83
2021/05/15 09:57:24;;;;;;;2.30;0.98;;;19.00;46.20;;;;;;6302764;28;20167;-83
2021/05/15 10:00:37;;;;;;;3.08;1.20;;;19.10;46.00;;;;;;6327086;28;20043;-83
2021/05/15 10:03:38;;;;;;;1.33;0.90;;;19.10;45.70;;;;;;6324524;28;20055;-82
2021/05/15 10:06:49;;;;;;;3.67;1.83;;;19.10;45.60;;;;;;6306884;28;20334;-82
2021/05/15 10:09:51;;;;;;;2.65;1.00;;;19.10;45.30;;;;;;6309975;28;20051;-82
2021/05/15 10:12:52;;;;;;;2.50;0.95;;;19.10;45.30;;;;;;6311535;28;20520;-83
2021/05/15 10:15:54;;;;;;;2.08;0.82;;;19.10;45.20;;;;;;6323362;28;20054;-83
2021/05/15 10:18:58;;;;;;;10.48;1.10;;;19.10;45.30;;;;;;6315103;28;20040;-83
2021/05/15 10:22:00;;;;;;;2.03;0.70;;;19.10;45.50;;;;;;6293171;28;20044;-83
2021/05/15 10:25:01;;;;;;;12.60;5.00;;;19.20;45.50;;;;;;6276590;28;20051;-83
2021/05/15 10:28:04;;;;;;;6.80;2.83;;;19.20;45.50;;;;;;6274416;28;20033;-83
2021/05/15 10:31:15;;;;;;;1.40;0.90;;;19.20;45.60;;;;;;6273870;28;20442;-86
2021/05/15 10:34:16;;;;;;;2.42;1.10;;;19.20;45.50;;;;;;6292064;28;20066;-83
2021/05/15 10:37:20;;;;;;;2.47;0.90;;;19.20;45.50;;;;;;6315428;28;20052;-83
2021/05/15 10:40:22;;;;;;;0.82;0.75;;;19.20;45.50;;;;;;6298157;28;20032;-83
2021/05/15 10:43:33;;;;;;;1.05;0.50;;;19.20;45.60;;;;;;6300214;28;20561;-84
2021/05/15 10:46:45;;;;;;;2.70;0.82;;;19.30;45.70;;;;;;6291007;28;20040;-85
2021/05/15 10:49:47;;;;;;;1.70;0.63;;;19.20;45.20;;;;;;6281674;28;20033;-83
2021/05/15 10:52:52;;;;;;;3.13;0.85;;;19.30;45.20;;;;;;6294608;28;20037;-84
2021/05/15 10:59:19;;;;;;;4.60;2.00;;;19.30;45.40;;;;;;6288512;28;20048;-82
2021/05/15 11:02:22;;;;;;;1.17;0.60;;;19.30;45.00;;;;;;6287623;28;20033;-82
2021/05/15 11:05:23;;;;;;;7.57;3.08;;;19.40;44.80;;;;;;6305669;28;20032;-82
2021/05/15 11:08:25;;;;;;;2.85;1.67;;;19.30;44.50;;;;;;6313946;28;20037;-82
2021/05/15 11:11:42;;;;;;;0.82;0.52;;;19.40;44.70;;;;;;6313593;28;20040;-83
2021/05/15 11:14:45;;;;;;;0.75;0.60;;;19.50;44.70;;;;;;6296863;28;20361;-83
2021/05/15 11:18:00;;;;;;;6.65;2.15;;;19.60;44.40;;;;;;6301218;28;20097;-83
2021/05/15 11:21:05;;;;;;;4.25;1.92;;;19.70;44.40;;;;;;6321008;28;20040;-83
2021/05/15 11:24:09;;;;;;;6.03;2.10;;;19.60;44.50;;;;;;6302018;28;20074;-83
2021/05/15 11:27:15;;;;;;;2.45;1.42;;;19.60;44.70;;;;;;6305679;28;20105;-83
2021/05/15 11:30:20;;;;;;;1.45;0.90;;;19.60;44.50;;;;;;6280572;28;20479;-82
2021/05/15 11:33:24;;;;;;;2.92;1.63;;;19.60;44.50;;;;;;6304386;28;20028;-83
2021/05/15 11:36:27;;;;;;;2.95;1.00;;;19.60;44.80;;;;;;6282170;28;20047;-83
2021/05/15 11:39:28;;;;;;;2.95;1.30;;;19.60;44.70;;;;;;6265643;28;20048;-83
2021/05/15 11:42:31;;;;;;;34.80;9.68;;;19.60;44.90;;;;;;6281910;28;20079;-83
2021/05/15 11:45:33;;;;;;;8.18;3.83;;;19.60;45.10;;;;;;6295011;28;20464;-82
2021/05/15 11:48:40;;;;;;;5.25;1.48;;;19.60;45.00;;;;;;6304921;28;20040;-82
2021/05/15 11:51:41;;;;;;;9.15;3.20;;;19.50;45.10;;;;;;6301420;28;20036;-82
2021/05/15 11:54:47;;;;;;;2.35;1.73;;;19.40;45.30;;;;;;6325023;28;20036;-83
2021/05/15 11:57:57;;;;;;;3.42;1.00;;;19.20;45.60;;;;;;6317276;28;20052;-83
2021/05/15 12:00:58;;;;;;;4.18;1.90;;;19.30;45.90;;;;;;6299978;28;20074;-82
2021/05/15 12:04:08;;;;;;;1.95;0.98;;;19.20;46.10;;;;;;6313467;28;20070;-82
2021/05/15 12:07:09;;;;;;;2.95;1.35;;;19.20;46.40;;;;;;6315717;28;20060;-82
2021/05/15 12:10:23;;;;;;;3.33;0.90;;;19.30;46.70;;;;;;6311696;28;20037;-83
2021/05/15 12:13:24;;;;;;;0.70;0.55;;;19.30;47.10;;;;;;6286363;28;20032;-84
2021/05/15 12:16:25;;;;;;;0.80;0.65;;;19.30;47.10;;;;;;6309697;28;20461;-83
2021/05/15 12:19:28;;;;;;;1.88;0.93;;;19.40;47.10;;;;;;6326261;28;20036;-83
2021/05/15 12:26:52;;;;;;;1.40;0.52;;;19.30;47.90;;;;;;6294579;28;20040;-84
2021/05/15 12:30:00;;;;;;;2.10;0.93;;;19.20;48.20;;;;;;6305201;28;20040;-83
2021/05/15 12:33:05;;;;;;;3.03;0.68;;;19.10;48.50;;;;;;6295089;28;20048;-84
2021/05/15 12:36:08;;;;;;;3.70;0.95;;;19.00;48.80;;;;;;6293303;28;20035;-84
2021/05/15 12:39:11;;;;;;;2.58;0.77;;;19.00;49.20;;;;;;6297396;28;20024;-83
2021/05/15 12:42:16;;;;;;;3.30;0.50;;;18.90;49.50;;;;;;6274682;28;20083;-82
2021/05/15 12:45:17;;;;;;;1.75;0.50;;;18.80;49.60;;;;;;6303858;28;20113;-82
2021/05/15 12:48:35;;;;;;;3.40;0.80;;;18.80;49.80;;;;;;6301595;28;20041;-84
2021/05/15 12:51:41;;;;;;;9.00;3.80;;;18.70;50.00;;;;;;6284082;28;20062;-82
2021/05/15 12:54:42;;;;;;;4.75;2.25;;;18.70;50.30;;;;;;6293102;28;20028;-83
2021/05/15 12:58:04;;;;;;;2.50;1.00;;;18.70;50.70;;;;;;6290457;28;20031;-83
2021/05/15 13:01:15;;;;;;;1.25;0.70;;;18.60;50.90;;;;;;6293594;28;20032;-83
2021/05/15 13:04:25;;;;;;;3.83;1.30;;;18.70;51.00;;;;;;6270861;28;20454;-83
2021/05/15 13:07:34;;;;;;;5.78;2.90;;;18.80;51.20;;;;;;6295512;28;20036;-83
2021/05/15 13:10:35;;;;;;;;;;;18.90;51.50;;;;;;6299746;28;20028;-83
2021/05/15 13:13:36;;;;;;;2.25;1.15;;;19.00;51.40;;;;;;6323295;28;19916;-83
2021/05/15 13:16:37;;;;;;;3.20;0.68;;;19.00;51.20;;;;;;6314492;28;20093;-83
2021/05/15 13:19:39;;;;;;;2.60;0.82;;;19.00;51.30;;;;;;6299079;28;20159;-82
2021/05/15 13:22:40;;;;;;;0.90;0.65;;;18.90;51.40;;;;;;6298880;28;20060;-83
2021/05/15 13:25:41;;;;;;;0.68;0.60;;;19.00;51.60;;;;;;6287138;28;20372;-83
2021/05/15 13:28:42;;;;;;;0.93;0.60;;;19.00;51.60;;;;;;6283097;28;20047;-82
2021/05/15 13:31:44;;;;;;;0.90;0.50;;;19.00;51.80;;;;;;6304061;28;20131;-82
2021/05/15 13:34:48;;;;;;;1.00;0.50;;;18.90;52.00;;;;;;6311299;28;20033;-84
2021/05/15 13:37:49;;;;;;;4.75;1.40;;;18.90;52.20;;;;;;6320182;28;20043;-83
2021/05/15 13:40:50;;;;;;;2.35;1.00;;;18.90;52.20;;;;;;6300187;28;20070;-83
2021/05/15 13:43:51;;;;;;;1.50;0.77;;;18.80;52.40;;;;;;6299682;28;20047;-82
2021/05/15 13:46:53;;;;;;;1.80;0.65;;;18.80;52.80;;;;;;6316971;28;20047;-82
2021/05/15 13:49:55;;;;;;;4.25;0.77;;;18.70;53.00;;;;;;6300368;28;20043;-83
2021/05/15 13:52:57;;;;;;;4.00;1.02;;;18.70;53.00;;;;;;6302596;28;20064;-83
2021/05/15 13:55:59;;;;;;;2.85;1.10;;;18.70;53.00;;;;;;6287504;28;20051;-83
2021/05/15 13:59:00;;;;;;;3.47;0.70;;;18.70;53.00;;;;;;6299012;28;20039;-83
2021/05/15 14:02:01;;;;;;;2.35;1.10;;;18.70;53.00;;;;;;6315653;28;20438;-84
2021/05/15 14:05:03;;;;;;;1.85;1.00;;;18.70;52.90;;;;;;6299749;28;20044;-82
2021/05/15 14:08:04;;;;;;;4.53;0.70;;;18.70;53.10;;;;;;6301487;28;20043;-83
2021/05/15 14:11:06;;;;;;;1.45;0.68;;;18.70;53.40;;;;;;6312399;28;20044;-84
2021/05/15 14:14:07;;;;;;;3.85;1.35;;;18.70;53.40;;;;;;6279736;28;20028;-83
2021/05/15 14:17:09;;;;;;;3.70;1.02;;;18.70;53.30;;;;;;6299074;28;20058;-83
2021/05/15 14:20:10;;;;;;;1.50;0.77;;;18.60;53.40;;;;;;6298008;28;20028;-82
2021/05/15 14:23:12;;;;;;;1.75;0.90;;;18.50;53.50;;;;;;6288641;28;20044;-83
2021/05/15 14:26:14;;;;;;;1.40;0.70;;;18.50;53.50;;;;;;6255590;28;20071;-82
2021/05/15 14:29:15;;;;;;;2.95;1.00;;;18.60;53.50;;;;;;6273798;28;20041;-83
2021/05/15 14:32:16;;;;;;;6.72;3.47;;;18.60;53.40;;;;;;6276101;28;20378;-83
2021/05/15 14:35:18;;;;;;;0.52;0.52;;;18.70;53.20;;;;;;6267288;28;20063;-83
2021/05/15 14:38:19;;;;;;;2.70;1.15;;;18.70;53.10;;;;;;6249418;28;20128;-83
2021/05/15 14:41:21;;;;;;;1.13;0.63;;;18.70;53.30;;;;;;6267453;28;20033;-83
2021/05/15 14:44:22;;;;;;;1.70;0.65;;;18.70;53.10;;;;;;6267995;28;20175;-83
2021/05/15 14:47:23;;;;;;;2.45;1.33;;;18.70;52.90;;;;;;6268503;28;20034;-83
2021/05/15 14:50:25;;;;;;;1.23;0.88;;;18.80;52.80;;;;;;6269678;28;20082;-83
2021/05/15 14:53:29;;;;;;;0.82;0.52;;;18.80;52.80;;;;;;6267464;28;20033;-82
2021/05/15 14:56:30;;;;;;;1.38;0.47;;;18.80;52.90;;;;;;6282525;28;20122;-83
2021/05/15 14:59:31;;;;;;;0.75;0.55;;;18.80;53.00;;;;;;6239015;28;20051;-83
2021/05/15 15:02:32;;;;;;;1.85;0.90;;;18.80;53.10;;;;;;6251497;28;20129;-84
2021/05/15 15:05:34;;;;;;;1.65;1.00;;;18.70;53.10;;;;;;6248470;28;20041;-84
2021/05/15 15:08:36;;;;;;;4.38;1.63;;;18.80;53.20;;;;;;6262453;28;20029;-83
2021/05/15 15:11:37;;;;;;;4.40;1.42;;;18.90;53.40;;;;;;6257318;28;20060;-83
2021/05/15 15:14:38;;;;;;;4.68;2.13;;;18.90;53.30;;;;;;6275072;28;20136;-83
2021/05/15 15:17:39;;;;;;;5.85;3.00;;;19.00;53.20;;;;;;6291120;28;20044;-83
2021/05/15 15:20:41;;;;;;;14.40;4.28;;;19.00;53.20;;;;;;6280441;28;20037;-84
2021/05/15 15:23:42;;;;;;;3.97;2.00;;;19.00;53.20;;;;;;6276388;28;20033;-84
2021/05/15 15:26:43;;;;;;;5.20;2.75;;;19.10;53.20;;;;;;6296376;28;20040;-83
2021/05/15 15:29:45;;;;;;;3.67;1.30;;;19.10;53.20;;;;;;6290614;28;20082;-82
2021/05/15 15:32:47;;;;;;;1.45;0.88;;;19.20;53.40;;;;;;6290621;28;20036;-84
2021/05/15 15:35:48;;;;;;;3.35;1.67;;;19.20;53.20;;;;;;6324440;28;20059;-85
2021/05/15 15:38:49;;;;;;;2.60;0.80;;;19.20;53.20;;;;;;6290689;28;20055;-83
2021/05/15 15:41:51;;;;;;;0.68;0.60;;;19.20;53.30;;;;;;6306317;28;20036;-83
2021/05/15 15:44:52;;;;;;;2.75;1.55;;;19.20;53.30;;;;;;6329568;28;20044;-83
2021/05/15 15:48:02;;;;;;;0.60;0.50;;;19.20;53.50;;;;;;6311669;28;20044;-84
2021/05/15 15:51:05;;;;;;;1.65;0.80;;;19.30;53.50;;;;;;6300276;28;20111;-84
2021/05/15 15:54:07;;;;;;;1.90;1.05;;;19.30;53.40;;;;;;6287104;28;20040;-83
2021/05/15 15:57:08;;;;;;;3.47;2.00;;;19.30;53.50;;;;;;6254136;28;20377;-82
2021/05/15 16:00:13;;;;;;;4.45;2.13;;;19.30;53.50;;;;;;6258314;28;20445;-83
2021/05/15 16:03:14;;;;;;;6.88;3.25;;;19.30;53.50;;;;;;6310492;28;20036;-82